Pas de pilote en ligne...

Compagnie Fsx-France ! Un nouveau look pour votre VA, par : Julien & Co

 METAR ET TAF INFORMATION
METAR FOR LFMN :
LFMN 210400Z 34012KT 9999 -SHRA FEW043 FEW066CB BKN130 22/19 Q1015 RETS NOSIG

 AÉROPORT DE AÉROPORT

 INFORMATIONS DE PISTE
Piste 04L Longueur de la piste 2742 m = 8995 ft Largeur de la piste 45 m = 148 ft
Élévation de la piste 10 ft Seuil de la piste déplacés 0 ft Runway heading 45
Piste 22R Longueur de la piste 2742 m = 8995 ft Largeur de la piste 45 m = 148 ft
Élévation de la piste 10 ft Seuil de la piste déplacés 575 ft Runway heading 225
Piste 04R Longueur de la piste 2960 m = 9712 ft Largeur de la piste 45 m = 148 ft
Élévation de la piste 10 ft Seuil de la piste déplacés 0 ft Runway heading 45
Piste 22L Longueur de la piste 2960 m = 9712 ft Largeur de la piste 45 m = 148 ft
Élévation de la piste 12 ft Seuil de la piste déplacés 0 ft Runway heading 225
 AÉROPORT FRÉQUENCES
Type A/D Nom NICE APP Féquence 124.175 MHZ
Type ATIS Nom NICE ATIS Féquence 129.6 MHZ
Type GND Nom NICE GND Féquence 121.775 MHZ
Type TWR Nom NICE TWR Féquence 118.7 MHZ

 AIDES A LA NAVIGATION
Type VOR-DME Nom Nice Cote D Azur Féquence 109650 KHZ
Type VOR-DME Nom Cagnes Sur Mer Féquence 109200 KHZ
Type NDB Nom Nice Féquence 399 KHZ
Type VOR-DME Nom Nice Féquence 112400 KHZ